createdAt,value
2022-09-02T00:01:22.433Z,84.70
2022-09-02T00:04:13.884Z,85.10
2022-09-02T00:07:01.707Z,85.30
2022-09-02T00:09:49.547Z,85.90
2022-09-02T00:12:37.326Z,86.50
2022-09-02T00:15:25.991Z,86.80
2022-09-02T00:18:15.474Z,86.60
2022-09-02T00:21:07.647Z,87.50
2022-09-02T00:23:55.921Z,85.80
2022-09-02T00:26:44.112Z,86.20
2022-09-02T00:29:32.068Z,85.20
2022-09-02T00:32:19.867Z,82.00
2022-09-02T00:35:08.595Z,81.00
2022-09-02T00:37:57.866Z,83.10
2022-09-02T00:40:46.963Z,81.10
2022-09-02T00:43:43.114Z,79.20
2022-09-02T00:46:31.946Z,79.50
2022-09-02T00:49:24.305Z,83.00
2022-09-02T00:52:15.382Z,82.30
2022-09-02T00:55:08.890Z,83.70
2022-09-02T00:58:00.858Z,84.30
2022-09-02T01:00:49.707Z,83.20
2022-09-02T01:03:37.806Z,85.30
2022-09-02T01:06:27.191Z,85.00
2022-09-02T01:09:16.191Z,86.30
2022-09-02T01:12:07.056Z,85.50
2022-09-02T01:14:55.205Z,87.20
2022-09-02T01:17:45.267Z,87.60
2022-09-02T01:20:33.148Z,88.60
2022-09-02T01:23:22.686Z,89.90
2022-09-02T01:26:13.102Z,88.60
2022-09-02T01:29:00.944Z,90.10
2022-09-02T01:31:49.454Z,90.30
2022-09-02T01:34:37.339Z,89.40
2022-09-02T01:37:25.233Z,87.30
2022-09-02T01:40:15.719Z,87.40
2022-09-02T01:43:07.126Z,89.70
2022-09-02T01:45:56.392Z,90.20
2022-09-02T01:48:44.239Z,89.80
2022-09-02T01:51:32.140Z,89.40
2022-09-02T01:54:20.087Z,90.20
2022-09-02T01:57:09.299Z,90.00
2022-09-02T01:59:57.455Z,90.10
2022-09-02T02:02:45.256Z,90.70
2022-09-02T02:05:33.549Z,90.60
2022-09-02T02:08:21.456Z,91.00
2022-09-02T02:11:09.833Z,91.30
2022-09-02T02:13:59.009Z,91.40
2022-09-02T02:16:47.507Z,91.60
2022-09-02T02:19:35.633Z,92.00
2022-09-02T02:22:23.479Z,91.90
2022-09-02T02:25:12.108Z,91.50
2022-09-02T02:27:59.938Z,91.50
2022-09-02T02:30:51.702Z,91.40
2022-09-02T02:33:39.642Z,91.60
2022-09-02T02:36:27.523Z,92.60
2022-09-02T02:39:15.365Z,92.40
2022-09-02T02:42:03.179Z,92.80
2022-09-02T02:44:51.036Z,93.10
2022-09-02T02:47:40.813Z,92.90
2022-09-02T02:50:28.957Z,92.90
2022-09-02T02:53:17.501Z,93.10
2022-09-02T02:56:05.805Z,92.80
2022-09-02T02:58:53.651Z,93.20
2022-09-02T03:01:41.590Z,93.90
2022-09-02T03:04:31.115Z,94.10
2022-09-02T03:07:18.914Z,94.10
2022-09-02T03:10:08.408Z,94.40
2022-09-02T03:12:56.426Z,94.20
2022-09-02T03:15:44.308Z,94.50
2022-09-02T03:18:32.367Z,94.60
2022-09-02T03:21:21.622Z,94.60
2022-09-02T03:24:09.587Z,94.40
2022-09-02T03:26:57.608Z,94.50
2022-09-02T03:29:45.645Z,94.50
2022-09-02T03:32:33.668Z,95.20
2022-09-02T03:35:22.793Z,93.70
2022-09-02T03:38:13.379Z,93.70
2022-09-02T03:41:01.369Z,94.50
2022-09-02T03:43:49.501Z,94.40
2022-09-02T03:46:37.587Z,94.80
2022-09-02T03:49:27.395Z,94.80
2022-09-02T03:52:15.685Z,94.80
2022-09-02T03:55:05.967Z,94.80
2022-09-02T03:57:54.790Z,95.00
2022-09-02T04:00:44.149Z,95.20
2022-09-02T04:03:32.265Z,95.10
2022-09-02T04:06:22.606Z,95.20
2022-09-02T04:09:10.588Z,95.40
2022-09-02T04:12:00.043Z,95.80
2022-09-02T04:14:48.036Z,96.00
2022-09-02T04:17:39.129Z,96.10
2022-09-02T04:20:27.489Z,96.40
2022-09-02T04:23:15.694Z,96.00
2022-09-02T04:26:06.387Z,96.10
2022-09-02T04:28:55.815Z,96.30
2022-09-02T04:31:43.997Z,96.30
2022-09-02T04:34:32.068Z,96.50
2022-09-02T04:37:20.213Z,96.70
2022-09-02T04:40:12.502Z,96.60
2022-09-02T04:43:00.813Z,96.70
2022-09-02T04:45:50.930Z,96.80
2022-09-02T04:48:39.677Z,97.10
2022-09-02T04:51:28.322Z,97.20
2022-09-02T04:54:16.367Z,97.40
2022-09-02T04:57:04.464Z,97.40
2022-09-02T04:59:52.847Z,97.40
2022-09-02T05:02:42.375Z,97.60
2022-09-02T05:05:30.459Z,97.80
2022-09-02T05:08:22.462Z,97.90
2022-09-02T05:11:13.394Z,98.00
2022-09-02T05:14:04.360Z,98.10
2022-09-02T05:16:53.916Z,98.40
2022-09-02T05:19:43.461Z,98.50
2022-09-02T05:22:31.439Z,98.50
2022-09-02T05:25:19.532Z,98.60
2022-09-02T05:28:08.877Z,98.70
2022-09-02T05:30:56.955Z,98.70
2022-09-02T05:33:45.672Z,98.70
2022-09-02T05:36:35.361Z,98.60
2022-09-02T05:39:23.381Z,98.90
2022-09-02T05:42:11.531Z,99.10
2022-09-02T05:44:59.719Z,99.10
2022-09-02T05:47:47.647Z,99.40
2022-09-02T05:50:38.032Z,99.50
2022-09-02T05:53:27.791Z,99.80
2022-09-02T05:56:15.829Z,99.80
2022-09-02T05:59:03.896Z,99.90
2022-09-02T06:01:52.474Z,99.90
2022-09-02T06:04:41.296Z,99.90
2022-09-02T06:07:29.756Z,99.90
2022-09-02T06:10:19.325Z,99.90
2022-09-02T06:13:08.128Z,99.90
2022-09-02T06:15:57.840Z,99.90
2022-09-02T06:18:46.232Z,99.90
2022-09-02T06:21:35.046Z,99.80
2022-09-02T06:24:23.245Z,99.50
2022-09-02T06:27:12.599Z,99.10
2022-09-02T06:30:00.607Z,99.30
2022-09-02T06:32:50.377Z,98.80
2022-09-02T06:35:40.682Z,99.30
2022-09-02T06:38:28.549Z,99.50
2022-09-02T06:41:17.462Z,98.10
2022-09-02T06:44:07.840Z,98.70
2022-09-02T06:46:56.530Z,98.70
2022-09-02T06:49:44.377Z,97.60
2022-09-02T06:52:32.246Z,98.40
2022-09-02T06:55:20.356Z,98.30
2022-09-02T06:58:08.419Z,98.90
2022-09-02T07:00:57.670Z,98.10
2022-09-02T07:04:03.404Z,96.80
2022-09-02T07:06:52.665Z,96.40
2022-09-02T07:09:42.811Z,97.70
2022-09-02T07:12:30.654Z,97.40
2022-09-02T07:15:18.515Z,98.10
2022-09-02T07:18:07.668Z,97.50
2022-09-02T07:20:56.162Z,96.60
2022-09-02T07:23:43.996Z,98.40
2022-09-02T07:26:31.974Z,97.70
2022-09-02T07:29:19.897Z,96.90
2022-09-02T07:32:07.935Z,97.20
2022-09-02T07:34:58.006Z,97.70
2022-09-02T07:37:45.820Z,96.90
2022-09-02T07:40:36.281Z,96.80
2022-09-02T07:43:24.295Z,97.00
2022-09-02T07:46:12.416Z,96.50
2022-09-02T07:49:00.610Z,96.20
2022-09-02T07:51:51.165Z,96.90
2022-09-02T07:54:39.027Z,96.90
2022-09-02T07:57:26.915Z,96.30
2022-09-02T08:00:16.499Z,96.50
2022-09-02T08:03:05.017Z,97.00
2022-09-02T08:05:53.514Z,97.10
2022-09-02T08:08:43.413Z,97.10
2022-09-02T08:11:32.748Z,96.40
2022-09-02T08:14:25.187Z,96.00
2022-09-02T08:17:13.068Z,96.10
2022-09-02T08:20:01.087Z,96.60
2022-09-02T08:22:55.891Z,96.50
2022-09-02T08:25:55.059Z,96.20
2022-09-02T08:28:43.113Z,96.20
2022-09-02T08:31:32.190Z,95.90
2022-09-02T08:34:20.082Z,96.20
2022-09-02T08:37:09.132Z,96.10
2022-09-02T08:39:57.040Z,97.00
2022-09-02T08:42:49.709Z,96.40
2022-09-02T08:45:40.321Z,96.30
2022-09-02T08:48:34.622Z,95.90
2022-09-02T08:51:26.225Z,95.90
2022-09-02T08:54:23.890Z,96.00
2022-09-02T08:57:12.083Z,96.00
2022-09-02T09:00:02.655Z,95.90
2022-09-02T09:02:56.910Z,95.80
2022-09-02T09:05:47.795Z,95.50
2022-09-02T09:08:38.820Z,95.80
2022-09-02T09:11:32.406Z,95.60
2022-09-02T09:14:24.915Z,95.60
2022-09-02T09:17:18.168Z,95.40
2022-09-02T09:20:09.804Z,95.10
2022-09-02T09:22:58.671Z,95.20
2022-09-02T09:25:48.402Z,95.90
2022-09-02T09:28:42.389Z,95.10
2022-09-02T09:31:32.416Z,95.20
2022-09-02T09:34:21.703Z,95.10
2022-09-02T09:37:09.615Z,95.00
2022-09-02T09:39:57.533Z,94.70
2022-09-02T09:42:49.762Z,94.90
2022-09-02T09:45:38.864Z,94.70
2022-09-02T09:48:30.838Z,94.90
2022-09-02T09:51:20.259Z,94.30
2022-09-02T09:54:17.601Z,94.20
2022-09-02T09:57:16.744Z,94.40
2022-09-02T10:00:11.187Z,94.20
2022-09-02T10:03:00.175Z,94.40
2022-09-02T10:05:48.124Z,94.00
2022-09-02T10:08:44.975Z,94.30
2022-09-02T10:11:33.762Z,94.40
2022-09-02T10:14:21.648Z,94.20
2022-09-02T10:17:20.793Z,94.10
2022-09-02T10:20:12.677Z,94.20
2022-09-02T10:23:17.176Z,94.70
2022-09-02T10:26:13.932Z,93.80
2022-09-02T10:29:22.976Z,93.90
2022-09-02T10:32:23.915Z,94.00
2022-09-02T10:35:17.694Z,93.80
2022-09-02T10:38:13.127Z,92.70
2022-09-02T10:41:03.939Z,92.50
2022-09-02T10:44:01.300Z,93.40
2022-09-02T10:46:54.380Z,92.90
2022-09-02T10:49:48.078Z,92.80
2022-09-02T10:52:43.053Z,91.60
2022-09-02T10:55:37.942Z,91.70
2022-09-02T10:58:30.819Z,91.20
2022-09-02T11:01:23.091Z,90.80
2022-09-02T11:04:13.469Z,90.00
2022-09-02T11:07:03.191Z,88.60
2022-09-02T11:09:54.540Z,84.30
2022-09-02T11:12:48.173Z,80.80
2022-09-02T11:15:42.284Z,85.80
2022-09-02T11:18:34.133Z,77.80
2022-09-02T11:21:32.034Z,81.10
2022-09-02T11:24:22.891Z,84.30
2022-09-02T11:27:32.207Z,82.20
2022-09-02T11:30:23.126Z,88.10
2022-09-02T11:33:14.295Z,85.10
2022-09-02T11:36:06.759Z,81.90
2022-09-02T11:38:56.085Z,82.10
2022-09-02T11:42:10.617Z,76.30
2022-09-02T11:45:18.725Z,79.20
2022-09-02T11:48:29.516Z,80.60
2022-09-02T11:51:35.378Z,81.00
2022-09-02T11:54:26.767Z,78.30
2022-09-02T11:57:16.505Z,80.80
2022-09-02T12:00:14.280Z,80.00
2022-09-02T12:03:12.117Z,76.70
2022-09-02T12:06:11.557Z,79.80
2022-09-02T12:09:02.729Z,77.20
2022-09-02T12:11:54.854Z,73.30
2022-09-02T12:15:06.978Z,74.10
2022-09-02T12:18:09.884Z,75.30
2022-09-02T12:21:07.177Z,75.80
2022-09-02T12:24:21.093Z,75.60
2022-09-02T12:27:12.327Z,71.00
2022-09-02T12:30:00.547Z,73.40
2022-09-02T12:33:12.485Z,75.80
2022-09-02T12:36:01.201Z,75.50
2022-09-02T12:38:49.029Z,73.30
2022-09-02T12:41:43.524Z,72.80
2022-09-02T12:44:36.426Z,72.10
2022-09-02T12:47:29.335Z,73.60
2022-09-02T12:50:23.253Z,75.30
2022-09-02T12:53:31.345Z,76.60
2022-09-02T12:56:20.802Z,72.00
2022-09-02T12:59:08.633Z,70.50
2022-09-02T13:02:05.655Z,70.10
2022-09-02T13:05:00.143Z,72.20
2022-09-02T13:08:08.815Z,71.60
2022-09-02T13:11:17.806Z,71.60
2022-09-02T13:14:23.816Z,66.80
2022-09-02T13:17:37.652Z,69.40
2022-09-02T13:20:39.296Z,69.10
2022-09-02T13:23:39.390Z,68.90
2022-09-02T13:26:50.378Z,66.20
2022-09-02T13:29:52.777Z,65.30
2022-09-02T13:32:42.055Z,65.40
2022-09-02T13:35:30.063Z,63.10
2022-09-02T13:38:24.288Z,64.10
2022-09-02T13:41:12.163Z,62.90
2022-09-02T13:44:06.967Z,62.80
2022-09-02T13:46:58.049Z,61.90
2022-09-02T13:49:48.212Z,66.20
2022-09-02T13:53:25.833Z,63.30
2022-09-02T13:55:48.945Z,63.30
2022-09-02T13:58:38.386Z,61.90
2022-09-02T14:01:28.983Z,65.00
2022-09-02T14:04:17.928Z,59.20
2022-09-02T14:07:08.861Z,60.40
2022-09-02T14:09:58.973Z,61.00
2022-09-02T14:12:47.550Z,59.20
2022-09-02T14:15:35.817Z,59.30
2022-09-02T14:18:25.554Z,60.00
2022-09-02T14:21:18.033Z,58.40
2022-09-02T14:24:12.485Z,60.00
2022-09-02T14:27:01.143Z,62.80
2022-09-02T14:29:51.318Z,56.90
2022-09-02T14:32:39.233Z,57.10
2022-09-02T14:35:27.949Z,62.20
2022-09-02T14:38:23.658Z,59.70
2022-09-02T14:41:14.285Z,58.60
2022-09-02T14:44:10.524Z,58.80
2022-09-02T14:46:59.520Z,57.90
2022-09-02T14:49:48.589Z,58.20
2022-09-02T14:52:36.667Z,56.40
2022-09-02T14:55:55.161Z,56.50
2022-09-02T14:58:44.367Z,57.10
2022-09-02T15:01:32.530Z,56.10
2022-09-02T15:04:20.570Z,56.50
2022-09-02T15:07:08.402Z,56.20
2022-09-02T15:09:56.214Z,55.70
2022-09-02T15:12:46.665Z,55.00
2022-09-02T15:15:35.874Z,55.40
2022-09-02T15:18:23.924Z,55.20
2022-09-02T15:21:11.945Z,55.30
2022-09-02T15:23:59.793Z,53.60
2022-09-02T15:26:47.637Z,53.50
2022-09-02T15:29:35.541Z,54.80
2022-09-02T15:32:26.835Z,54.40
2022-09-02T15:35:14.662Z,53.60
2022-09-02T15:38:02.966Z,53.00
2022-09-02T15:40:50.831Z,52.70
2022-09-02T15:43:38.725Z,52.60
2022-09-02T15:46:27.951Z,52.40
2022-09-02T15:49:17.105Z,52.20
2022-09-02T15:52:06.047Z,52.60
2022-09-02T15:54:55.050Z,51.40
2022-09-02T15:57:42.992Z,51.70
2022-09-02T16:00:35.025Z,51.60
2022-09-02T16:03:22.961Z,51.00
2022-09-02T16:06:12.160Z,52.60
2022-09-02T16:09:00.338Z,51.70
2022-09-02T16:11:49.234Z,51.90
2022-09-02T16:14:37.218Z,50.60
2022-09-02T16:17:25.097Z,50.20
2022-09-02T16:20:12.876Z,51.40
2022-09-02T16:23:02.451Z,50.30
2022-09-02T16:26:06.472Z,50.70
2022-09-02T16:28:55.569Z,50.00
2022-09-02T16:31:44.791Z,48.80
2022-09-02T16:34:41.268Z,48.90
2022-09-02T16:37:29.163Z,49.10
2022-09-02T16:40:21.410Z,49.40
2022-09-02T16:43:10.585Z,50.30
2022-09-02T16:46:02.806Z,49.00
2022-09-02T16:48:50.722Z,49.00
2022-09-02T16:51:40.911Z,49.50
2022-09-02T16:54:31.867Z,49.30
2022-09-02T16:57:21.645Z,49.60
2022-09-02T17:00:10.342Z,49.50
2022-09-02T17:02:58.229Z,49.70
2022-09-02T17:05:47.962Z,48.80
2022-09-02T17:08:37.324Z,49.40
2022-09-02T17:11:26.603Z,48.60
2022-09-02T17:14:16.933Z,48.80
2022-09-02T17:17:04.885Z,48.70
2022-09-02T17:19:52.786Z,49.30
2022-09-02T17:22:40.649Z,49.70
2022-09-02T17:25:28.475Z,49.40
2022-09-02T17:28:16.344Z,49.20
2022-09-02T17:31:14.379Z,49.40
2022-09-02T17:34:03.921Z,49.00
2022-09-02T17:36:51.798Z,49.10
2022-09-02T17:39:39.644Z,49.50
2022-09-02T17:42:26.587Z,49.40
2022-09-02T17:45:14.462Z,49.70
2022-09-02T17:48:31.924Z,49.20
2022-09-02T17:51:11.730Z,49.30
2022-09-02T17:53:59.969Z,49.30
2022-09-02T17:56:57.284Z,49.80
2022-09-02T17:59:51.347Z,49.70
2022-09-02T18:02:44.221Z,50.20
2022-09-02T18:05:39.943Z,50.20
2022-09-02T18:08:34.818Z,50.30
2022-09-02T18:11:23.028Z,50.00
2022-09-02T18:14:14.965Z,51.10
2022-09-02T18:17:07.262Z,50.70
2022-09-02T18:19:58.477Z,51.00
2022-09-02T18:22:59.012Z,51.20
2022-09-02T18:25:50.754Z,50.90
2022-09-02T18:28:45.350Z,51.20
2022-09-02T18:31:41.374Z,51.20
2022-09-02T18:34:34.730Z,51.80
2022-09-02T18:37:30.318Z,51.40
2022-09-02T18:40:28.247Z,51.50
2022-09-02T18:43:20.790Z,52.00
2022-09-02T18:46:09.825Z,51.80
2022-09-02T18:49:00.246Z,51.90
2022-09-02T18:51:48.460Z,52.30
2022-09-02T18:54:40.439Z,52.70
2022-09-02T18:57:33.625Z,52.50
2022-09-02T19:00:22.214Z,52.40
2022-09-02T19:03:10.242Z,51.50
2022-09-02T19:05:58.400Z,52.30
2022-09-02T19:08:45.386Z,52.00
2022-09-02T19:11:33.837Z,51.70
2022-09-02T19:14:27.284Z,52.20
2022-09-02T19:17:15.294Z,52.50
2022-09-02T19:20:03.337Z,52.50
2022-09-02T19:22:53.074Z,52.40
2022-09-02T19:25:44.152Z,52.20
2022-09-02T19:28:32.120Z,52.70
2022-09-02T19:31:23.674Z,52.80
2022-09-02T19:34:14.028Z,52.40
2022-09-02T19:37:05.154Z,52.70
2022-09-02T19:39:54.113Z,52.60
2022-09-02T19:42:44.322Z,53.40
2022-09-02T19:45:38.392Z,53.00
2022-09-02T19:48:27.629Z,53.90
2022-09-02T19:51:17.006Z,53.40
2022-09-02T19:54:04.934Z,53.20
2022-09-02T19:56:58.330Z,54.20
2022-09-02T19:59:46.737Z,54.10
2022-09-02T20:02:34.650Z,54.00
2022-09-02T20:05:25.866Z,54.30
2022-09-02T20:08:14.053Z,54.10
2022-09-02T20:11:05.100Z,54.10
2022-09-02T20:13:53.354Z,55.20
2022-09-02T20:16:41.262Z,54.90
2022-09-02T20:19:29.180Z,55.20
2022-09-02T20:22:19.041Z,55.10
2022-09-02T20:25:07.116Z,56.10
2022-09-02T20:28:02.301Z,55.60
2022-09-02T20:30:53.978Z,56.10
2022-09-02T20:33:45.893Z,56.50
2022-09-02T20:36:36.196Z,56.20
2022-09-02T20:39:35.695Z,56.00
2022-09-02T20:42:32.117Z,56.40
2022-09-02T20:45:23.353Z,56.60
2022-09-02T20:48:17.340Z,57.40
2022-09-02T20:51:08.857Z,57.30
2022-09-02T20:54:11.696Z,57.30
2022-09-02T20:57:07.013Z,58.10
2022-09-02T21:00:02.316Z,57.60
2022-09-02T21:02:52.731Z,57.90
2022-09-02T21:05:42.346Z,58.10
2022-09-02T21:08:33.077Z,58.20
2022-09-02T21:11:21.276Z,58.30
2022-09-02T21:14:14.635Z,59.00
2022-09-02T21:17:04.717Z,58.60
2022-09-02T21:19:55.594Z,58.00
2022-09-02T21:22:48.588Z,58.80
2022-09-02T21:25:44.594Z,59.00
2022-09-02T21:28:36.278Z,59.70
2022-09-02T21:31:28.429Z,60.10
2022-09-02T21:34:19.834Z,62.10
2022-09-02T21:37:09.318Z,61.70
2022-09-02T21:40:02.227Z,62.40
2022-09-02T21:42:57.322Z,62.50
2022-09-02T21:45:48.501Z,63.30
2022-09-02T21:48:42.693Z,62.00
2022-09-02T21:51:33.835Z,61.70
2022-09-02T21:54:35.313Z,64.00
2022-09-02T21:57:28.880Z,62.10
2022-09-02T22:00:18.584Z,62.00
2022-09-02T22:03:13.714Z,62.20
2022-09-02T22:06:04.387Z,62.50
2022-09-02T22:08:56.197Z,63.10
2022-09-02T22:11:46.083Z,62.20
2022-09-02T22:14:50.191Z,61.10
2022-09-02T22:17:45.933Z,62.30
2022-09-02T22:20:44.163Z,63.50
2022-09-02T22:23:34.577Z,63.10
2022-09-02T22:26:29.119Z,64.40
2022-09-02T22:29:18.719Z,62.50
2022-09-02T22:32:08.713Z,63.50
2022-09-02T22:35:02.500Z,63.90
2022-09-02T22:37:55.408Z,62.60
2022-09-02T22:40:47.259Z,64.70
2022-09-02T22:43:43.573Z,64.70
2022-09-02T22:46:52.120Z,64.70
2022-09-02T22:50:00.223Z,66.70
2022-09-02T22:52:49.864Z,64.60
2022-09-02T22:55:42.588Z,64.40
2022-09-02T22:58:47.564Z,65.60
2022-09-02T23:01:42.632Z,67.30
2022-09-02T23:04:35.261Z,66.40
2022-09-02T23:07:24.202Z,67.50
2022-09-02T23:10:18.735Z,68.60
2022-09-02T23:13:14.142Z,67.10
2022-09-02T23:16:11.857Z,69.20
2022-09-02T23:19:06.092Z,69.10
2022-09-02T23:22:00.318Z,69.40
2022-09-02T23:24:51.980Z,69.80
2022-09-02T23:27:45.036Z,70.10
2022-09-02T23:30:33.761Z,70.60
2022-09-02T23:33:33.415Z,70.60
2022-09-02T23:36:26.060Z,71.40
2022-09-02T23:39:29.071Z,72.40
2022-09-02T23:42:17.309Z,72.70
2022-09-02T23:45:18.709Z,72.90
2022-09-02T23:48:17.499Z,73.70
2022-09-02T23:51:13.831Z,74.00
2022-09-02T23:54:08.764Z,74.80
2022-09-02T23:57:08.596Z,75.10
